createdAt,value
2018-12-30T00:00:54.703Z,67.50
2018-12-30T00:03:24.077Z,67.60
2018-12-30T00:05:53.847Z,67.80
2018-12-30T00:08:23.730Z,68.00
2018-12-30T00:10:53.683Z,68.30
2018-12-30T00:13:23.442Z,68.50
2018-12-30T00:15:52.970Z,68.90
2018-12-30T00:18:22.743Z,69.00
2018-12-30T00:20:52.526Z,69.30
2018-12-30T00:23:23.400Z,69.60
2018-12-30T00:25:53.022Z,69.70
2018-12-30T00:28:22.540Z,70.10
2018-12-30T00:30:59.622Z,70.10
2018-12-30T00:33:30.062Z,70.30
2018-12-30T00:36:09.850Z,70.40
2018-12-30T00:38:40.016Z,70.60
2018-12-30T00:41:09.442Z,70.90
2018-12-30T00:43:39.150Z,71.10
2018-12-30T00:46:08.661Z,71.30
2018-12-30T00:48:38.266Z,71.50
2018-12-30T00:51:07.634Z,71.70
2018-12-30T00:53:48.498Z,71.80
2018-12-30T00:56:18.626Z,72.70
2018-12-30T00:58:48.080Z,72.10
2018-12-30T01:01:17.548Z,72.30
2018-12-30T01:03:47.214Z,72.50
2018-12-30T01:06:16.870Z,72.60
2018-12-30T01:08:48.644Z,72.80
2018-12-30T01:11:18.560Z,72.80
2018-12-30T01:13:48.372Z,72.80
2018-12-30T01:16:18.187Z,73.00
2018-12-30T01:19:25.070Z,73.20
2018-12-30T01:21:54.357Z,73.20
2018-12-30T01:24:23.817Z,73.30
2018-12-30T01:26:53.250Z,73.30
2018-12-30T01:29:33.886Z,73.40
2018-12-30T01:32:03.370Z,73.40
2018-12-30T01:34:32.980Z,73.60
2018-12-30T01:37:02.549Z,73.80
2018-12-30T01:39:32.467Z,73.90
2018-12-30T01:42:01.993Z,74.10
2018-12-30T01:44:33.433Z,74.20
2018-12-30T01:47:02.866Z,74.20
2018-12-30T01:49:32.521Z,74.20
2018-12-30T01:52:02.155Z,74.40
2018-12-30T01:54:31.460Z,74.40
2018-12-30T01:57:01.141Z,74.50
2018-12-30T01:59:30.877Z,74.60
2018-12-30T02:02:00.585Z,74.60
2018-12-30T02:04:30.593Z,74.70
2018-12-30T02:07:00.066Z,74.70
2018-12-30T02:09:29.690Z,74.80
2018-12-30T02:11:59.499Z,75.00
2018-12-30T02:14:29.215Z,75.10
2018-12-30T02:16:58.995Z,75.10
2018-12-30T02:19:28.350Z,75.10
2018-12-30T02:21:57.749Z,75.10
2018-12-30T02:24:28.541Z,75.10
2018-12-30T02:26:57.937Z,75.20
2018-12-30T02:29:27.554Z,75.40
2018-12-30T02:31:57.002Z,75.40
2018-12-30T02:34:26.309Z,75.50
2018-12-30T02:36:55.740Z,75.50
2018-12-30T02:39:25.829Z,75.50
2018-12-30T02:41:55.265Z,75.80
2018-12-30T02:44:24.919Z,75.70
2018-12-30T02:46:54.635Z,75.80
2018-12-30T02:49:24.615Z,76.60
2018-12-30T02:51:54.342Z,75.90
2018-12-30T02:54:23.793Z,76.00
2018-12-30T02:56:53.339Z,76.00
2018-12-30T02:59:23.055Z,76.00
2018-12-30T03:01:52.904Z,76.20
2018-12-30T03:04:22.285Z,76.30
2018-12-30T03:06:51.858Z,76.30
2018-12-30T03:09:21.213Z,76.40
2018-12-30T03:11:50.684Z,76.50
2018-12-30T03:14:20.343Z,77.00
2018-12-30T03:16:49.936Z,76.50
2018-12-30T03:19:20.359Z,76.60
2018-12-30T03:21:58.949Z,76.60
2018-12-30T03:24:22.198Z,76.80
2018-12-30T03:26:51.743Z,77.70
2018-12-30T03:29:21.159Z,76.90
2018-12-30T03:31:50.669Z,77.10
2018-12-30T03:34:20.150Z,77.30
2018-12-30T03:36:49.519Z,77.50
2018-12-30T03:39:19.046Z,77.70
2018-12-30T03:41:48.571Z,77.70
2018-12-30T03:44:18.150Z,77.80
2018-12-30T03:46:47.669Z,78.20
2018-12-30T03:49:17.270Z,78.20
2018-12-30T03:51:46.767Z,79.30
2018-12-30T03:54:16.532Z,78.50
2018-12-30T03:56:46.016Z,78.60
2018-12-30T03:59:15.670Z,78.70
2018-12-30T04:01:45.539Z,78.90
2018-12-30T04:04:15.129Z,79.10
2018-12-30T04:06:44.701Z,79.10
2018-12-30T04:09:14.111Z,79.30
2018-12-30T04:11:43.820Z,79.50
2018-12-30T04:14:13.511Z,79.60
2018-12-30T04:16:45.361Z,79.80
2018-12-30T04:19:14.688Z,79.80
2018-12-30T04:21:44.179Z,80.00
2018-12-30T04:24:13.706Z,80.20
2018-12-30T04:26:43.151Z,80.30
2018-12-30T04:29:12.530Z,80.50
2018-12-30T04:31:41.982Z,80.60
2018-12-30T04:34:13.241Z,80.70
2018-12-30T04:36:43.076Z,80.80
2018-12-30T04:39:12.482Z,81.00
2018-12-30T04:41:41.862Z,81.10
2018-12-30T04:44:11.606Z,81.30
2018-12-30T04:46:41.373Z,81.50
2018-12-30T04:49:10.964Z,81.70
2018-12-30T04:51:40.536Z,81.90
2018-12-30T04:54:10.228Z,82.00
2018-12-30T04:56:39.950Z,82.30
2018-12-30T04:59:09.712Z,83.20
2018-12-30T05:01:39.110Z,82.50
2018-12-30T05:04:08.870Z,82.70
2018-12-30T05:06:38.562Z,82.80
2018-12-30T05:09:09.059Z,82.90
2018-12-30T05:11:38.982Z,83.10
2018-12-30T05:14:08.652Z,83.20
2018-12-30T05:16:38.281Z,83.60
2018-12-30T05:19:08.010Z,83.60
2018-12-30T05:21:37.562Z,83.80
2018-12-30T05:24:13.158Z,84.00
2018-12-30T05:26:42.798Z,84.10
2018-12-30T05:29:12.298Z,84.30
2018-12-30T05:31:41.860Z,84.20
2018-12-30T05:34:11.626Z,84.40
2018-12-30T05:36:41.039Z,84.70
2018-12-30T05:39:10.462Z,84.80
2018-12-30T05:41:40.218Z,84.80
2018-12-30T05:44:10.690Z,85.00
2018-12-30T05:46:40.410Z,85.30
2018-12-30T05:49:11.468Z,85.40
2018-12-30T05:51:41.148Z,85.60
2018-12-30T05:54:11.240Z,85.70
2018-12-30T05:56:41.189Z,85.80
2018-12-30T05:59:12.785Z,86.20
2018-12-30T06:01:42.574Z,86.00
2018-12-30T06:04:12.455Z,86.40
2018-12-30T06:06:41.969Z,86.50
2018-12-30T06:09:11.621Z,86.70
2018-12-30T06:11:41.207Z,86.70
2018-12-30T06:14:11.071Z,86.80
2018-12-30T06:16:40.531Z,86.70
2018-12-30T06:19:09.959Z,86.70
2018-12-30T06:21:39.404Z,86.60
2018-12-30T06:24:08.979Z,86.70
2018-12-30T06:26:38.712Z,86.40
2018-12-30T06:29:08.125Z,86.40
2018-12-30T06:31:37.683Z,86.30
2018-12-30T06:34:07.251Z,86.20
2018-12-30T06:36:36.775Z,86.20
2018-12-30T06:39:07.447Z,86.20
2018-12-30T06:41:36.853Z,86.20
2018-12-30T06:44:06.555Z,86.40
2018-12-30T06:46:36.414Z,86.30
2018-12-30T06:49:05.877Z,86.30
2018-12-30T06:51:35.361Z,86.40
2018-12-30T06:54:05.084Z,86.50
2018-12-30T06:56:34.951Z,86.40
2018-12-30T06:59:04.747Z,86.40
2018-12-30T07:01:34.218Z,86.30
2018-12-30T07:04:03.741Z,86.40
2018-12-30T07:06:33.419Z,86.50
2018-12-30T07:09:02.955Z,86.50
2018-12-30T07:11:32.703Z,87.30
2018-12-30T07:14:02.353Z,86.40
2018-12-30T07:16:32.393Z,86.50
2018-12-30T07:19:02.228Z,86.60
2018-12-30T07:21:31.645Z,86.80
2018-12-30T07:24:01.463Z,86.70
2018-12-30T07:26:34.333Z,86.70
2018-12-30T07:29:03.957Z,86.70
2018-12-30T07:31:33.779Z,86.70
2018-12-30T07:34:03.197Z,86.90
2018-12-30T07:36:33.187Z,86.80
2018-12-30T07:39:02.837Z,86.90
2018-12-30T07:41:32.410Z,86.60
2018-12-30T07:44:01.938Z,86.60
2018-12-30T07:46:31.633Z,86.60
2018-12-30T07:49:01.213Z,86.60
2018-12-30T07:51:31.351Z,86.60
2018-12-30T07:54:00.869Z,86.50
2018-12-30T07:56:30.393Z,86.60
2018-12-30T07:58:59.798Z,86.40
2018-12-30T08:01:29.477Z,86.20
2018-12-30T08:03:58.993Z,86.20
2018-12-30T08:06:28.451Z,86.00
2018-12-30T08:08:58.128Z,85.80
2018-12-30T08:11:27.581Z,85.70
2018-12-30T08:13:57.229Z,85.70
2018-12-30T08:16:26.816Z,85.70
2018-12-30T08:19:05.741Z,85.50
2018-12-30T08:21:35.459Z,85.30
2018-12-30T08:24:05.221Z,85.20
2018-12-30T08:26:35.436Z,85.10
2018-12-30T08:29:04.943Z,85.10
2018-12-30T08:31:34.663Z,84.70
2018-12-30T08:34:04.568Z,84.60
2018-12-30T08:36:34.343Z,84.40
2018-12-30T08:39:06.309Z,84.10
2018-12-30T08:41:35.614Z,83.70
2018-12-30T08:44:05.066Z,83.60
2018-12-30T08:46:34.633Z,83.30
2018-12-30T08:49:03.970Z,83.10
2018-12-30T08:51:33.344Z,83.00
2018-12-30T08:54:02.921Z,82.60
2018-12-30T08:56:32.374Z,81.90
2018-12-30T08:59:01.905Z,81.70
2018-12-30T09:01:31.362Z,81.40
2018-12-30T09:04:00.996Z,81.00
2018-12-30T09:06:30.503Z,80.40
2018-12-30T09:09:00.524Z,79.50
2018-12-30T09:11:30.080Z,79.20
2018-12-30T09:14:00.814Z,78.60
2018-12-30T09:16:30.549Z,78.50
2018-12-30T09:19:10.471Z,78.10
2018-12-30T09:21:45.989Z,77.70
2018-12-30T09:24:23.833Z,77.20
2018-12-30T09:26:54.392Z,76.50
2018-12-30T09:29:24.158Z,76.00
2018-12-30T09:31:54.020Z,75.60
2018-12-30T09:34:23.546Z,75.30
2018-12-30T09:36:53.446Z,75.20
2018-12-30T09:39:23.104Z,74.80
2018-12-30T09:41:52.580Z,74.50
2018-12-30T09:44:22.347Z,74.60
2018-12-30T09:46:51.775Z,74.20
2018-12-30T09:49:21.342Z,74.00
2018-12-30T09:51:50.825Z,74.00
2018-12-30T09:54:30.716Z,73.60
2018-12-30T09:57:00.395Z,73.20
2018-12-30T09:59:29.966Z,73.30
2018-12-30T10:01:59.425Z,73.20
2018-12-30T10:04:29.034Z,73.00
2018-12-30T10:07:04.462Z,72.90
2018-12-30T10:09:47.551Z,72.80
2018-12-30T10:12:17.248Z,72.80
2018-12-30T10:14:46.895Z,73.00
2018-12-30T10:17:17.756Z,73.00
2018-12-30T10:19:47.516Z,72.80
2018-12-30T10:22:17.176Z,72.80
2018-12-30T10:24:46.909Z,72.80
2018-12-30T10:27:35.242Z,73.00
2018-12-30T10:30:14.102Z,72.80
2018-12-30T10:32:47.564Z,72.80
2018-12-30T10:35:17.260Z,72.80
2018-12-30T10:37:46.830Z,72.80
2018-12-30T10:40:16.366Z,72.50
2018-12-30T10:42:46.054Z,72.30
2018-12-30T10:45:15.564Z,71.90
2018-12-30T10:47:44.897Z,71.40
2018-12-30T10:50:14.540Z,71.10
2018-12-30T10:52:43.917Z,71.30
2018-12-30T10:55:13.409Z,71.20
2018-12-30T10:57:43.074Z,71.30
2018-12-30T11:00:20.492Z,71.70
2018-12-30T11:02:49.930Z,71.40
2018-12-30T11:05:19.374Z,71.30
2018-12-30T11:07:48.821Z,71.20
2018-12-30T11:10:18.182Z,70.70
2018-12-30T11:12:47.580Z,70.60
2018-12-30T11:15:17.042Z,70.60
2018-12-30T11:17:46.500Z,70.60
2018-12-30T11:20:16.022Z,70.80
2018-12-30T11:22:45.600Z,70.70
2018-12-30T11:25:15.207Z,70.40
2018-12-30T11:27:44.890Z,70.50
2018-12-30T11:30:14.451Z,70.40
2018-12-30T11:32:44.038Z,70.70
2018-12-30T11:35:15.077Z,70.50
2018-12-30T11:37:44.607Z,70.40
2018-12-30T11:40:14.485Z,70.50
2018-12-30T11:42:46.430Z,70.50
2018-12-30T11:45:15.959Z,70.20
2018-12-30T11:47:45.540Z,70.20
2018-12-30T11:50:15.199Z,70.30
2018-12-30T11:52:44.755Z,70.50
2018-12-30T11:55:14.359Z,70.40
2018-12-30T11:57:43.975Z,70.10
2018-12-30T12:00:13.418Z,69.70
2018-12-30T12:02:42.800Z,69.70
2018-12-30T12:05:12.290Z,69.80
2018-12-30T12:07:42.713Z,69.60
2018-12-30T12:10:12.142Z,69.30
2018-12-30T12:12:48.628Z,69.40
2018-12-30T12:15:32.106Z,69.00
2018-12-30T12:18:02.573Z,68.90
2018-12-30T12:20:32.173Z,68.80
2018-12-30T12:23:07.637Z,68.90
2018-12-30T12:25:37.060Z,68.70
2018-12-30T12:28:07.174Z,68.80
2018-12-30T12:30:37.068Z,68.80
2018-12-30T12:33:07.345Z,69.00
2018-12-30T12:35:36.813Z,69.00
2018-12-30T12:38:06.585Z,69.10
2018-12-30T12:40:36.390Z,69.00
2018-12-30T12:43:06.122Z,69.10
2018-12-30T12:46:03.697Z,69.20
2018-12-30T12:48:33.335Z,69.10
2018-12-30T12:51:02.894Z,69.40
2018-12-30T12:53:32.456Z,70.20
2018-12-30T12:56:01.990Z,69.40
2018-12-30T12:58:31.635Z,69.40
2018-12-30T13:01:08.937Z,69.40
2018-12-30T13:03:38.413Z,69.30
2018-12-30T13:06:07.773Z,69.30
2018-12-30T13:08:37.249Z,69.00
2018-12-30T13:11:06.659Z,69.00
2018-12-30T13:13:36.019Z,69.00
2018-12-30T13:16:05.517Z,69.10
2018-12-30T13:18:35.053Z,68.90
2018-12-30T13:21:04.477Z,68.90
2018-12-30T13:23:34.166Z,68.80
2018-12-30T13:26:03.877Z,68.80
2018-12-30T13:28:33.329Z,68.80
2018-12-30T13:31:02.759Z,68.80
2018-12-30T13:33:34.394Z,68.80
2018-12-30T13:36:04.509Z,68.60
2018-12-30T13:38:34.117Z,68.80
2018-12-30T13:41:04.077Z,68.70
2018-12-30T13:43:33.593Z,69.00
2018-12-30T13:46:09.107Z,69.10
2018-12-30T13:48:38.757Z,68.80
2018-12-30T13:51:08.331Z,68.80
2018-12-30T13:53:37.744Z,68.80
2018-12-30T13:56:16.013Z,68.70
2018-12-30T13:58:46.184Z,68.70
2018-12-30T14:01:16.239Z,68.50
2018-12-30T14:03:45.681Z,68.10
2018-12-30T14:06:15.021Z,68.10
2018-12-30T14:08:44.510Z,68.10
2018-12-30T14:11:13.837Z,68.00
2018-12-30T14:13:44.017Z,67.90
2018-12-30T14:16:13.359Z,67.80
2018-12-30T14:18:42.814Z,67.70
2018-12-30T14:21:12.281Z,67.70
2018-12-30T14:23:41.786Z,67.70
2018-12-30T14:26:11.213Z,67.80
2018-12-30T14:28:40.585Z,67.50
2018-12-30T14:31:10.065Z,67.60
2018-12-30T14:33:39.352Z,67.30
2018-12-30T14:36:36.061Z,67.20
2018-12-30T14:39:15.479Z,67.10
2018-12-30T14:41:52.945Z,67.10
2018-12-30T14:44:22.246Z,67.20
2018-12-30T14:46:55.269Z,67.30
2018-12-30T14:49:24.735Z,67.20
2018-12-30T14:52:00.085Z,67.20
2018-12-30T14:54:29.505Z,67.20
2018-12-30T14:56:59.027Z,67.20
2018-12-30T14:59:30.671Z,67.20
2018-12-30T15:01:59.998Z,67.20
2018-12-30T15:04:29.376Z,67.30
2018-12-30T15:06:58.737Z,67.40
2018-12-30T15:09:35.455Z,67.60
2018-12-30T15:11:59.400Z,67.60
2018-12-30T15:14:28.825Z,67.60
2018-12-30T15:16:59.470Z,67.60
2018-12-30T15:19:29.180Z,67.50
2018-12-30T15:21:58.643Z,67.30
2018-12-30T15:24:35.129Z,67.40
2018-12-30T15:27:04.417Z,67.60
2018-12-30T19:31:56.279Z,68.60
2018-12-30T19:34:29.649Z,68.70
2018-12-30T19:36:59.025Z,68.70
2018-12-30T19:39:36.521Z,68.80
2018-12-30T19:42:06.051Z,68.90
2018-12-30T19:44:54.497Z,68.90
2018-12-30T19:47:23.873Z,69.20
2018-12-30T19:49:53.117Z,69.00
2018-12-30T19:52:22.472Z,69.00
2018-12-30T19:54:54.965Z,69.10
2018-12-30T19:57:24.271Z,69.10
2018-12-30T19:59:53.696Z,69.10
2018-12-30T20:02:23.138Z,69.10
2018-12-30T20:04:52.491Z,69.20
2018-12-30T20:07:21.979Z,69.10
2018-12-30T20:09:51.347Z,69.20
2018-12-30T20:12:20.672Z,69.20
2018-12-30T20:14:49.907Z,69.10
2018-12-30T20:20:47.578Z,69.20
2018-12-30T20:23:19.045Z,69.20
2018-12-30T20:25:48.564Z,69.20
2018-12-30T20:28:17.877Z,69.30
2018-12-30T20:30:47.280Z,69.30
2018-12-30T20:33:16.629Z,69.20
2018-12-30T20:35:48.081Z,69.40
2018-12-30T20:38:17.386Z,69.40
2018-12-30T20:40:57.985Z,69.60
2018-12-30T20:43:27.387Z,69.60
2018-12-30T20:45:56.890Z,69.60
2018-12-30T20:48:27.357Z,69.60
2018-12-30T20:50:57.088Z,69.70
2018-12-30T20:53:26.380Z,69.70
2018-12-30T20:55:55.643Z,69.60
2018-12-30T20:58:24.993Z,69.70
2018-12-30T21:00:54.194Z,69.70
2018-12-30T21:03:23.526Z,69.60
2018-12-30T21:05:52.900Z,69.60
2018-12-30T21:08:22.261Z,69.60
2018-12-30T21:10:51.747Z,69.50
2018-12-30T21:13:26.920Z,69.40
2018-12-30T21:15:57.427Z,69.30
2018-12-30T21:18:26.857Z,69.30
2018-12-30T21:20:57.710Z,69.30
2018-12-30T21:23:27.172Z,69.40
2018-12-30T21:25:56.434Z,69.40
2018-12-30T21:28:25.906Z,69.30
2018-12-30T21:30:55.286Z,69.40
2018-12-30T21:33:24.579Z,69.20
2018-12-30T21:35:53.885Z,69.20
2018-12-30T21:38:23.361Z,69.30
2018-12-30T21:40:52.675Z,69.30
2018-12-30T21:43:22.030Z,69.40
2018-12-30T21:45:53.565Z,69.40
2018-12-30T21:48:22.853Z,69.50
2018-12-30T21:50:52.226Z,69.70
2018-12-30T21:53:21.514Z,69.60
2018-12-30T21:55:51.012Z,69.80
2018-12-30T21:58:20.372Z,70.00
2018-12-30T22:00:50.201Z,70.00
2018-12-30T22:03:20.958Z,69.90
2018-12-30T22:05:50.493Z,69.90
2018-12-30T22:08:19.828Z,70.00
2018-12-30T22:10:49.116Z,70.10
2018-12-30T22:13:18.477Z,70.20
2018-12-30T22:15:47.881Z,70.40
2018-12-30T22:18:17.256Z,70.30
2018-12-30T22:20:46.569Z,70.40
2018-12-30T22:23:15.798Z,70.50
2018-12-30T22:25:45.140Z,70.40
2018-12-30T22:28:14.440Z,70.50
2018-12-30T22:30:43.643Z,70.40
2018-12-30T22:33:12.949Z,70.40
2018-12-30T22:35:42.306Z,70.30
2018-12-30T22:38:11.709Z,70.30
2018-12-30T22:40:41.103Z,70.40
2018-12-30T22:43:10.556Z,70.50
2018-12-30T22:45:46.029Z,71.20
2018-12-30T22:48:15.338Z,70.40
2018-12-30T22:50:44.835Z,70.40
2018-12-30T22:53:14.244Z,70.30
2018-12-30T22:55:43.642Z,70.50
2018-12-30T22:58:18.887Z,70.70
2018-12-30T23:01:00.416Z,70.70
2018-12-30T23:03:29.776Z,70.70
2018-12-30T23:05:59.109Z,70.90
2018-12-30T23:08:28.446Z,70.70
2018-12-30T23:10:57.820Z,70.70
2018-12-30T23:13:27.115Z,70.80
2018-12-30T23:15:56.416Z,71.00
2018-12-30T23:18:25.622Z,70.90
2018-12-30T23:20:54.945Z,71.00
2018-12-30T23:23:27.479Z,71.90
2018-12-30T23:25:56.968Z,71.40
2018-12-30T23:28:26.343Z,71.50
2018-12-30T23:31:04.524Z,71.50
2018-12-30T23:33:34.104Z,71.50
2018-12-30T23:36:12.401Z,71.60
2018-12-30T23:38:41.676Z,71.50
2018-12-30T23:41:12.230Z,71.30
2018-12-30T23:43:41.909Z,71.40
2018-12-30T23:46:11.574Z,71.60
2018-12-30T23:48:41.186Z,71.50
2018-12-30T23:51:10.534Z,71.60
2018-12-30T23:53:40.065Z,71.70
2018-12-30T23:56:09.524Z,71.80
2018-12-30T23:58:38.986Z,71.70
